sensor_id;sensor_type;location;lat;lon;timestamp;temperature;humidity
64855;DHT22;51321;50.428;8.378;2022-10-26T00:00:43;9.70;99.90
64855;DHT22;51321;50.428;8.378;2022-10-26T00:03:05;9.80;99.90
64855;DHT22;51321;50.428;8.378;2022-10-26T00:05:33;9.70;99.90
64855;DHT22;51321;50.428;8.378;2022-10-26T00:07:56;9.80;99.90
64855;DHT22;51321;50.428;8.378;2022-10-26T00:10:18;9.80;99.90
64855;DHT22;51321;50.428;8.378;2022-10-26T00:12:42;9.90;99.90
64855;DHT22;51321;50.428;8.378;2022-10-26T00:15:05;9.90;99.90
64855;DHT22;51321;50.428;8.378;2022-10-26T00:17:29;10.00;99.90
64855;DHT22;51321;50.428;8.378;2022-10-26T00:19:51;10.00;99.90
64855;DHT22;51321;50.428;8.378;2022-10-26T00:22:16;10.10;99.90
64855;DHT22;51321;50.428;8.378;2022-10-26T00:24:39;10.10;99.90
64855;DHT22;51321;50.428;8.378;2022-10-26T00:27:01;10.10;99.90
64855;DHT22;51321;50.428;8.378;2022-10-26T00:29:24;10.10;99.90
64855;DHT22;51321;50.428;8.378;2022-10-26T00:31:47;10.10;99.90
64855;DHT22;51321;50.428;8.378;2022-10-26T00:34:10;10.10;99.90
64855;DHT22;51321;50.428;8.378;2022-10-26T00:36:33;10.00;99.90
64855;DHT22;51321;50.428;8.378;2022-10-26T00:38:59;10.10;99.90
64855;DHT22;51321;50.428;8.378;2022-10-26T00:41:24;10.10;99.90
64855;DHT22;51321;50.428;8.378;2022-10-26T00:43:55;10.10;99.90
64855;DHT22;51321;50.428;8.378;2022-10-26T00:46:21;10.10;99.90
64855;DHT22;51321;50.428;8.378;2022-10-26T00:48:48;10.10;99.90
64855;DHT22;51321;50.428;8.378;2022-10-26T00:51:14;10.10;99.90
64855;DHT22;51321;50.428;8.378;2022-10-26T00:53:39;10.00;99.90
64855;DHT22;51321;50.428;8.378;2022-10-26T00:56:06;10.00;99.90
64855;DHT22;51321;50.428;8.378;2022-10-26T00:58:29;10.00;99.90
64855;DHT22;51321;50.428;8.378;2022-10-26T01:00:53;10.00;99.90
64855;DHT22;51321;50.428;8.378;2022-10-26T01:03:20;10.00;99.90
64855;DHT22;51321;50.428;8.378;2022-10-26T01:05:47;10.00;99.90
64855;DHT22;51321;50.428;8.378;2022-10-26T01:08:10;10.00;99.90
64855;DHT22;51321;50.428;8.378;2022-10-26T01:10:34;10.00;99.90
64855;DHT22;51321;50.428;8.378;2022-10-26T01:13:00;10.10;99.90
64855;DHT22;51321;50.428;8.378;2022-10-26T01:15:29;10.10;99.90
64855;DHT22;51321;50.428;8.378;2022-10-26T01:17:55;10.20;99.90
64855;DHT22;51321;50.428;8.378;2022-10-26T01:23:22;10.20;99.90
64855;DHT22;51321;50.428;8.378;2022-10-26T01:26:17;10.20;99.90
64855;DHT22;51321;50.428;8.378;2022-10-26T01:29:11;10.10;99.90
64855;DHT22;51321;50.428;8.378;2022-10-26T01:31:41;10.00;99.90
64855;DHT22;51321;50.428;8.378;2022-10-26T01:34:14;10.00;99.90
64855;DHT22;51321;50.428;8.378;2022-10-26T01:36:47;10.00;99.90
64855;DHT22;51321;50.428;8.378;2022-10-26T01:39:16;10.00;99.90
64855;DHT22;51321;50.428;8.378;2022-10-26T01:41:45;10.00;99.90
64855;DHT22;51321;50.428;8.378;2022-10-26T01:44:17;9.90;99.90
64855;DHT22;51321;50.428;8.378;2022-10-26T01:46:48;10.00;99.90
64855;DHT22;51321;50.428;8.378;2022-10-26T01:49:13;10.10;99.90
64855;DHT22;51321;50.428;8.378;2022-10-26T01:51:38;10.20;99.90
64855;DHT22;51321;50.428;8.378;2022-10-26T01:54:06;10.20;99.90
64855;DHT22;51321;50.428;8.378;2022-10-26T01:56:39;10.30;99.90
64855;DHT22;51321;50.428;8.378;2022-10-26T01:59:22;10.30;99.90
64855;DHT22;51321;50.428;8.378;2022-10-26T02:05:09;10.30;99.90
64855;DHT22;51321;50.428;8.378;2022-10-26T02:07:41;10.20;99.90
64855;DHT22;51321;50.428;8.378;2022-10-26T02:10:11;10.10;99.90
64855;DHT22;51321;50.428;8.378;2022-10-26T02:12:46;10.00;99.90
64855;DHT22;51321;50.428;8.378;2022-10-26T02:15:17;10.20;99.90
64855;DHT22;51321;50.428;8.378;2022-10-26T02:17:45;10.20;99.90
64855;DHT22;51321;50.428;8.378;2022-10-26T02:20:15;10.20;99.90
64855;DHT22;51321;50.428;8.378;2022-10-26T02:22:45;10.20;99.90
64855;DHT22;51321;50.428;8.378;2022-10-26T02:25:17;10.20;99.90
64855;DHT22;51321;50.428;8.378;2022-10-26T02:27:57;10.30;99.90
64855;DHT22;51321;50.428;8.378;2022-10-26T02:30:21;10.20;99.90
64855;DHT22;51321;50.428;8.378;2022-10-26T02:32:49;10.10;99.90
64855;DHT22;51321;50.428;8.378;2022-10-26T02:35:15;10.00;99.90
64855;DHT22;51321;50.428;8.378;2022-10-26T02:37:43;10.10;99.90
64855;DHT22;51321;50.428;8.378;2022-10-26T02:44:06;10.20;99.90
64855;DHT22;51321;50.428;8.378;2022-10-26T02:46:30;10.30;99.90
64855;DHT22;51321;50.428;8.378;2022-10-26T02:49:04;10.20;99.90
64855;DHT22;51321;50.428;8.378;2022-10-26T02:51:36;10.20;99.90
64855;DHT22;51321;50.428;8.378;2022-10-26T02:54:05;10.20;99.90
64855;DHT22;51321;50.428;8.378;2022-10-26T02:56:34;10.20;99.90
64855;DHT22;51321;50.428;8.378;2022-10-26T02:59:01;10.20;99.90
64855;DHT22;51321;50.428;8.378;2022-10-26T03:01:28;10.40;99.90
64855;DHT22;51321;50.428;8.378;2022-10-26T03:03:55;10.30;99.90
64855;DHT22;51321;50.428;8.378;2022-10-26T03:06:21;10.20;99.90
64855;DHT22;51321;50.428;8.378;2022-10-26T03:08:46;10.20;99.90
64855;DHT22;51321;50.428;8.378;2022-10-26T03:11:11;10.20;99.90
64855;DHT22;51321;50.428;8.378;2022-10-26T03:13:35;10.20;99.90
64855;DHT22;51321;50.428;8.378;2022-10-26T03:15:57;10.20;99.90
64855;DHT22;51321;50.428;8.378;2022-10-26T03:18:20;10.30;99.90
64855;DHT22;51321;50.428;8.378;2022-10-26T03:20:43;10.30;99.90
64855;DHT22;51321;50.428;8.378;2022-10-26T03:23:05;10.30;99.90
64855;DHT22;51321;50.428;8.378;2022-10-26T03:25:28;10.30;99.90
64855;DHT22;51321;50.428;8.378;2022-10-26T03:27:56;10.40;99.90
64855;DHT22;51321;50.428;8.378;2022-10-26T03:30:18;10.40;99.90
64855;DHT22;51321;50.428;8.378;2022-10-26T03:32:40;10.40;99.90
64855;DHT22;51321;50.428;8.378;2022-10-26T03:35:02;10.40;99.90
64855;DHT22;51321;50.428;8.378;2022-10-26T03:37:25;10.40;99.90
64855;DHT22;51321;50.428;8.378;2022-10-26T03:39:47;10.40;99.90
64855;DHT22;51321;50.428;8.378;2022-10-26T03:42:10;10.40;99.90
64855;DHT22;51321;50.428;8.378;2022-10-26T03:44:32;10.20;99.90
64855;DHT22;51321;50.428;8.378;2022-10-26T03:47:00;10.20;99.90
64855;DHT22;51321;50.428;8.378;2022-10-26T03:49:28;10.20;99.90
64855;DHT22;51321;50.428;8.378;2022-10-26T03:51:51;10.30;99.90
64855;DHT22;51321;50.428;8.378;2022-10-26T03:54:14;10.30;99.90
64855;DHT22;51321;50.428;8.378;2022-10-26T03:56:38;10.30;99.90
64855;DHT22;51321;50.428;8.378;2022-10-26T03:59:10;10.40;99.90
64855;DHT22;51321;50.428;8.378;2022-10-26T04:01:34;10.40;99.90
64855;DHT22;51321;50.428;8.378;2022-10-26T04:03:56;10.40;99.90
64855;DHT22;51321;50.428;8.378;2022-10-26T04:06:18;10.40;99.90
64855;DHT22;51321;50.428;8.378;2022-10-26T04:08:40;10.40;99.90
64855;DHT22;51321;50.428;8.378;2022-10-26T04:11:02;10.50;99.90
64855;DHT22;51321;50.428;8.378;2022-10-26T04:13:25;10.50;99.90
64855;DHT22;51321;50.428;8.378;2022-10-26T04:15:49;10.60;99.90
64855;DHT22;51321;50.428;8.378;2022-10-26T04:18:12;10.60;99.90
64855;DHT22;51321;50.428;8.378;2022-10-26T04:20:34;10.50;99.90
64855;DHT22;51321;50.428;8.378;2022-10-26T04:22:59;10.50;99.90
64855;DHT22;51321;50.428;8.378;2022-10-26T04:25:25;10.50;99.90
64855;DHT22;51321;50.428;8.378;2022-10-26T04:27:49;10.50;99.90
64855;DHT22;51321;50.428;8.378;2022-10-26T04:30:17;10.60;99.90
64855;DHT22;51321;50.428;8.378;2022-10-26T04:32:41;10.60;99.90
64855;DHT22;51321;50.428;8.378;2022-10-26T04:35:05;10.60;99.90
64855;DHT22;51321;50.428;8.378;2022-10-26T04:37:27;10.50;99.90
64855;DHT22;51321;50.428;8.378;2022-10-26T04:39:51;10.50;99.90
64855;DHT22;51321;50.428;8.378;2022-10-26T04:42:13;10.50;99.90
64855;DHT22;51321;50.428;8.378;2022-10-26T04:44:36;10.50;99.90
64855;DHT22;51321;50.428;8.378;2022-10-26T04:46:59;10.50;99.90
64855;DHT22;51321;50.428;8.378;2022-10-26T04:49:23;10.60;99.90
64855;DHT22;51321;50.428;8.378;2022-10-26T04:51:49;10.60;99.90
64855;DHT22;51321;50.428;8.378;2022-10-26T04:54:11;10.60;99.90
64855;DHT22;51321;50.428;8.378;2022-10-26T04:56:34;10.50;99.90
64855;DHT22;51321;50.428;8.378;2022-10-26T04:58:57;10.50;99.90
64855;DHT22;51321;50.428;8.378;2022-10-26T05:01:19;10.50;99.90
64855;DHT22;51321;50.428;8.378;2022-10-26T05:03:42;10.50;99.90
64855;DHT22;51321;50.428;8.378;2022-10-26T05:06:06;10.40;99.90
64855;DHT22;51321;50.428;8.378;2022-10-26T05:08:30;10.50;99.90
64855;DHT22;51321;50.428;8.378;2022-10-26T05:10:55;10.50;99.90
64855;DHT22;51321;50.428;8.378;2022-10-26T05:13:17;10.40;99.90
64855;DHT22;51321;50.428;8.378;2022-10-26T05:15:38;10.50;99.90
64855;DHT22;51321;50.428;8.378;2022-10-26T05:18:04;10.30;99.90
64855;DHT22;51321;50.428;8.378;2022-10-26T05:20:29;10.30;99.90
64855;DHT22;51321;50.428;8.378;2022-10-26T05:22:53;10.30;99.90
64855;DHT22;51321;50.428;8.378;2022-10-26T05:25:15;10.30;99.90
64855;DHT22;51321;50.428;8.378;2022-10-26T05:27:39;10.30;99.90
64855;DHT22;51321;50.428;8.378;2022-10-26T05:30:04;10.40;99.90
64855;DHT22;51321;50.428;8.378;2022-10-26T05:32:29;10.40;99.90
64855;DHT22;51321;50.428;8.378;2022-10-26T05:34:53;10.40;99.90
64855;DHT22;51321;50.428;8.378;2022-10-26T05:37:17;10.30;99.90
64855;DHT22;51321;50.428;8.378;2022-10-26T05:39:42;10.40;99.90
64855;DHT22;51321;50.428;8.378;2022-10-26T05:42:04;10.40;99.90
64855;DHT22;51321;50.428;8.378;2022-10-26T05:44:29;10.30;99.90
64855;DHT22;51321;50.428;8.378;2022-10-26T05:46:54;10.30;99.90
64855;DHT22;51321;50.428;8.378;2022-10-26T05:49:17;10.40;99.90
64855;DHT22;51321;50.428;8.378;2022-10-26T05:51:39;10.30;99.90
64855;DHT22;51321;50.428;8.378;2022-10-26T05:54:08;10.30;99.90
64855;DHT22;51321;50.428;8.378;2022-10-26T05:56:36;10.30;99.90
64855;DHT22;51321;50.428;8.378;2022-10-26T05:59:00;10.40;99.90
64855;DHT22;51321;50.428;8.378;2022-10-26T06:01:30;10.50;99.90
64855;DHT22;51321;50.428;8.378;2022-10-26T06:04:03;10.50;99.90
64855;DHT22;51321;50.428;8.378;2022-10-26T06:06:29;10.60;99.90
64855;DHT22;51321;50.428;8.378;2022-10-26T06:08:55;10.60;99.90
64855;DHT22;51321;50.428;8.378;2022-10-26T06:11:19;10.70;99.90
64855;DHT22;51321;50.428;8.378;2022-10-26T06:13:43;10.60;99.90
64855;DHT22;51321;50.428;8.378;2022-10-26T06:16:18;10.60;99.90
64855;DHT22;51321;50.428;8.378;2022-10-26T06:18:51;10.50;99.90
64855;DHT22;51321;50.428;8.378;2022-10-26T06:21:27;10.60;99.90
64855;DHT22;51321;50.428;8.378;2022-10-26T06:23:55;10.60;99.90
64855;DHT22;51321;50.428;8.378;2022-10-26T06:26:30;10.60;99.90
64855;DHT22;51321;50.428;8.378;2022-10-26T06:29:04;10.60;99.90
64855;DHT22;51321;50.428;8.378;2022-10-26T06:31:28;10.60;99.90
64855;DHT22;51321;50.428;8.378;2022-10-26T06:33:52;10.60;99.90
64855;DHT22;51321;50.428;8.378;2022-10-26T06:36:22;10.60;99.90
64855;DHT22;51321;50.428;8.378;2022-10-26T06:38:47;10.70;99.90
64855;DHT22;51321;50.428;8.378;2022-10-26T06:41:11;10.70;99.90
64855;DHT22;51321;50.428;8.378;2022-10-26T06:43:36;10.80;99.90
64855;DHT22;51321;50.428;8.378;2022-10-26T06:46:06;10.90;99.90
64855;DHT22;51321;50.428;8.378;2022-10-26T06:48:44;11.00;99.90
64855;DHT22;51321;50.428;8.378;2022-10-26T06:51:11;11.00;99.90
64855;DHT22;51321;50.428;8.378;2022-10-26T06:53:40;10.90;99.90
64855;DHT22;51321;50.428;8.378;2022-10-26T06:56:06;10.90;99.90
64855;DHT22;51321;50.428;8.378;2022-10-26T06:58:33;10.90;99.90
64855;DHT22;51321;50.428;8.378;2022-10-26T07:00:56;11.00;99.90
64855;DHT22;51321;50.428;8.378;2022-10-26T07:03:23;11.10;99.90
64855;DHT22;51321;50.428;8.378;2022-10-26T07:05:47;11.20;99.90
64855;DHT22;51321;50.428;8.378;2022-10-26T07:08:10;11.20;99.90
64855;DHT22;51321;50.428;8.378;2022-10-26T07:10:39;11.20;99.90
64855;DHT22;51321;50.428;8.378;2022-10-26T07:13:02;11.20;99.90
64855;DHT22;51321;50.428;8.378;2022-10-26T07:15:27;11.20;99.90
64855;DHT22;51321;50.428;8.378;2022-10-26T07:17:52;11.20;99.90
64855;DHT22;51321;50.428;8.378;2022-10-26T07:20:20;11.20;99.90
64855;DHT22;51321;50.428;8.378;2022-10-26T07:22:43;11.30;99.90
64855;DHT22;51321;50.428;8.378;2022-10-26T07:25:06;11.30;99.90
64855;DHT22;51321;50.428;8.378;2022-10-26T07:27:31;11.40;99.90
64855;DHT22;51321;50.428;8.378;2022-10-26T07:29:55;11.40;99.90
64855;DHT22;51321;50.428;8.378;2022-10-26T07:32:24;11.40;99.90
64855;DHT22;51321;50.428;8.378;2022-10-26T07:34:46;11.50;99.90
64855;DHT22;51321;50.428;8.378;2022-10-26T07:37:11;11.60;99.90
64855;DHT22;51321;50.428;8.378;2022-10-26T07:39:34;11.60;99.90
64855;DHT22;51321;50.428;8.378;2022-10-26T07:41:58;11.80;99.90
64855;DHT22;51321;50.428;8.378;2022-10-26T07:44:20;11.80;99.90
64855;DHT22;51321;50.428;8.378;2022-10-26T07:46:43;11.90;99.90
64855;DHT22;51321;50.428;8.378;2022-10-26T07:49:05;12.00;99.90
64855;DHT22;51321;50.428;8.378;2022-10-26T07:51:27;12.20;99.90
64855;DHT22;51321;50.428;8.378;2022-10-26T07:53:52;12.20;99.90
64855;DHT22;51321;50.428;8.378;2022-10-26T07:56:16;12.30;99.90
64855;DHT22;51321;50.428;8.378;2022-10-26T07:58:40;12.30;99.90
64855;DHT22;51321;50.428;8.378;2022-10-26T08:01:05;12.30;99.90
64855;DHT22;51321;50.428;8.378;2022-10-26T08:03:28;12.40;99.90
64855;DHT22;51321;50.428;8.378;2022-10-26T08:05:54;12.40;99.90
64855;DHT22;51321;50.428;8.378;2022-10-26T08:08:17;12.50;99.90
64855;DHT22;51321;50.428;8.378;2022-10-26T08:10:43;12.60;99.90
64855;DHT22;51321;50.428;8.378;2022-10-26T08:13:06;12.60;99.90
64855;DHT22;51321;50.428;8.378;2022-10-26T08:15:28;12.60;99.90
64855;DHT22;51321;50.428;8.378;2022-10-26T08:17:51;12.60;99.90
64855;DHT22;51321;50.428;8.378;2022-10-26T08:20:18;12.70;99.90
64855;DHT22;51321;50.428;8.378;2022-10-26T08:22:42;12.80;99.90
64855;DHT22;51321;50.428;8.378;2022-10-26T08:25:04;13.00;99.90
64855;DHT22;51321;50.428;8.378;2022-10-26T08:27:30;13.10;99.90
64855;DHT22;51321;50.428;8.378;2022-10-26T08:29:52;13.10;99.90
64855;DHT22;51321;50.428;8.378;2022-10-26T08:32:23;13.10;99.90
64855;DHT22;51321;50.428;8.378;2022-10-26T08:34:45;13.00;99.90
64855;DHT22;51321;50.428;8.378;2022-10-26T08:37:08;13.00;99.90
64855;DHT22;51321;50.428;8.378;2022-10-26T08:39:31;13.10;99.90
64855;DHT22;51321;50.428;8.378;2022-10-26T08:42:00;13.10;99.90
64855;DHT22;51321;50.428;8.378;2022-10-26T08:44:30;13.20;99.90
64855;DHT22;51321;50.428;8.378;2022-10-26T08:46:58;13.30;99.90
64855;DHT22;51321;50.428;8.378;2022-10-26T08:49:24;13.30;99.90
64855;DHT22;51321;50.428;8.378;2022-10-26T08:52:01;13.30;99.90
64855;DHT22;51321;50.428;8.378;2022-10-26T08:54:33;13.50;99.90
64855;DHT22;51321;50.428;8.378;2022-10-26T08:56:58;13.70;99.90
64855;DHT22;51321;50.428;8.378;2022-10-26T08:59:29;14.00;99.90
64855;DHT22;51321;50.428;8.378;2022-10-26T09:01:55;14.30;99.90
64855;DHT22;51321;50.428;8.378;2022-10-26T09:04:17;14.40;99.90
64855;DHT22;51321;50.428;8.378;2022-10-26T09:06:48;14.50;99.90
64855;DHT22;51321;50.428;8.378;2022-10-26T09:09:17;14.40;99.90
64855;DHT22;51321;50.428;8.378;2022-10-26T09:11:57;14.30;99.90
64855;DHT22;51321;50.428;8.378;2022-10-26T09:14:35;14.30;99.90
64855;DHT22;51321;50.428;8.378;2022-10-26T09:17:06;14.20;99.90
64855;DHT22;51321;50.428;8.378;2022-10-26T09:19:57;14.10;99.90
64855;DHT22;51321;50.428;8.378;2022-10-26T09:22:27;14.00;99.90
64855;DHT22;51321;50.428;8.378;2022-10-26T09:24:54;13.90;99.90
64855;DHT22;51321;50.428;8.378;2022-10-26T09:27:21;13.80;99.90
64855;DHT22;51321;50.428;8.378;2022-10-26T09:29:47;13.80;99.90
64855;DHT22;51321;50.428;8.378;2022-10-26T09:32:14;13.90;99.90
64855;DHT22;51321;50.428;8.378;2022-10-26T09:34:41;14.00;99.90
64855;DHT22;51321;50.428;8.378;2022-10-26T09:37:14;14.00;99.90
64855;DHT22;51321;50.428;8.378;2022-10-26T09:39:44;14.00;99.90
64855;DHT22;51321;50.428;8.378;2022-10-26T09:42:13;14.00;99.90
64855;DHT22;51321;50.428;8.378;2022-10-26T09:44:41;14.30;99.90
64855;DHT22;51321;50.428;8.378;2022-10-26T09:47:13;14.50;99.90
64855;DHT22;51321;50.428;8.378;2022-10-26T09:49:41;15.00;99.90
64855;DHT22;51321;50.428;8.378;2022-10-26T09:52:08;15.30;99.90
64855;DHT22;51321;50.428;8.378;2022-10-26T09:54:31;15.60;99.90
64855;DHT22;51321;50.428;8.378;2022-10-26T09:56:56;15.80;99.90
64855;DHT22;51321;50.428;8.378;2022-10-26T09:59:21;16.10;99.90
64855;DHT22;51321;50.428;8.378;2022-10-26T10:01:45;16.40;99.90
64855;DHT22;51321;50.428;8.378;2022-10-26T10:04:15;16.50;99.90
64855;DHT22;51321;50.428;8.378;2022-10-26T10:06:39;16.60;99.90
64855;DHT22;51321;50.428;8.378;2022-10-26T10:09:06;16.80;99.90
64855;DHT22;51321;50.428;8.378;2022-10-26T10:11:43;16.80;99.90
64855;DHT22;51321;50.428;8.378;2022-10-26T10:14:13;16.70;99.90
64855;DHT22;51321;50.428;8.378;2022-10-26T10:16:37;16.50;99.90
64855;DHT22;51321;50.428;8.378;2022-10-26T10:19:01;16.40;99.90
64855;DHT22;51321;50.428;8.378;2022-10-26T10:21:33;16.40;99.90
64855;DHT22;51321;50.428;8.378;2022-10-26T10:23:56;16.30;99.90
64855;DHT22;51321;50.428;8.378;2022-10-26T10:26:20;16.30;99.90
64855;DHT22;51321;50.428;8.378;2022-10-26T10:28:42;16.30;99.90
64855;DHT22;51321;50.428;8.378;2022-10-26T10:31:21;16.40;99.90
64855;DHT22;51321;50.428;8.378;2022-10-26T10:33:45;16.40;99.90
64855;DHT22;51321;50.428;8.378;2022-10-26T10:36:13;16.40;99.90
64855;DHT22;51321;50.428;8.378;2022-10-26T10:38:39;16.50;99.90
64855;DHT22;51321;50.428;8.378;2022-10-26T10:41:03;16.50;99.90
64855;DHT22;51321;50.428;8.378;2022-10-26T10:43:26;16.40;99.90
64855;DHT22;51321;50.428;8.378;2022-10-26T10:45:50;16.40;99.90
64855;DHT22;51321;50.428;8.378;2022-10-26T10:48:16;16.30;99.90
64855;DHT22;51321;50.428;8.378;2022-10-26T10:50:50;16.30;99.90
64855;DHT22;51321;50.428;8.378;2022-10-26T10:53:16;16.30;99.90
64855;DHT22;51321;50.428;8.378;2022-10-26T10:55:50;16.20;99.90
64855;DHT22;51321;50.428;8.378;2022-10-26T10:58:18;16.20;99.90
64855;DHT22;51321;50.428;8.378;2022-10-26T11:00:47;16.10;99.90
64855;DHT22;51321;50.428;8.378;2022-10-26T11:03:31;16.30;99.90
64855;DHT22;51321;50.428;8.378;2022-10-26T11:06:04;16.60;99.90
64855;DHT22;51321;50.428;8.378;2022-10-26T11:08:29;17.00;99.90
64855;DHT22;51321;50.428;8.378;2022-10-26T11:10:59;17.50;99.90
64855;DHT22;51321;50.428;8.378;2022-10-26T11:13:24;17.90;99.90
64855;DHT22;51321;50.428;8.378;2022-10-26T11:15:53;18.30;99.90
64855;DHT22;51321;50.428;8.378;2022-10-26T11:18:21;18.60;99.90
64855;DHT22;51321;50.428;8.378;2022-10-26T11:20:49;18.90;99.90
64855;DHT22;51321;50.428;8.378;2022-10-26T11:23:19;19.00;99.90
64855;DHT22;51321;50.428;8.378;2022-10-26T11:25:51;19.00;99.90
64855;DHT22;51321;50.428;8.378;2022-10-26T11:28:30;19.00;99.90
64855;DHT22;51321;50.428;8.378;2022-10-26T11:30:59;19.10;99.90
64855;DHT22;51321;50.428;8.378;2022-10-26T11:33:31;19.20;99.90
64855;DHT22;51321;50.428;8.378;2022-10-26T11:35:58;19.40;99.90
64855;DHT22;51321;50.428;8.378;2022-10-26T11:38:28;19.50;99.90
64855;DHT22;51321;50.428;8.378;2022-10-26T11:40:54;19.60;99.90
64855;DHT22;51321;50.428;8.378;2022-10-26T11:43:24;19.70;99.90
64855;DHT22;51321;50.428;8.378;2022-10-26T11:46:03;19.90;99.90
64855;DHT22;51321;50.428;8.378;2022-10-26T11:48:32;20.00;99.90
64855;DHT22;51321;50.428;8.378;2022-10-26T11:50:57;20.00;99.90
64855;DHT22;51321;50.428;8.378;2022-10-26T11:53:23;20.10;99.90
64855;DHT22;51321;50.428;8.378;2022-10-26T11:56:00;20.20;99.90
64855;DHT22;51321;50.428;8.378;2022-10-26T11:58:27;20.30;99.90
64855;DHT22;51321;50.428;8.378;2022-10-26T12:00:53;20.40;99.90
64855;DHT22;51321;50.428;8.378;2022-10-26T12:03:19;20.40;99.90
64855;DHT22;51321;50.428;8.378;2022-10-26T12:05:48;20.30;99.90
64855;DHT22;51321;50.428;8.378;2022-10-26T12:08:14;20.10;99.90
64855;DHT22;51321;50.428;8.378;2022-10-26T12:10:40;20.10;99.90
64855;DHT22;51321;50.428;8.378;2022-10-26T12:13:12;20.10;99.90
64855;DHT22;51321;50.428;8.378;2022-10-26T12:15:41;20.30;99.90
64855;DHT22;51321;50.428;8.378;2022-10-26T12:18:10;20.50;99.90
64855;DHT22;51321;50.428;8.378;2022-10-26T12:20:50;20.80;99.90
64855;DHT22;51321;50.428;8.378;2022-10-26T12:23:14;20.90;99.90
64855;DHT22;51321;50.428;8.378;2022-10-26T12:25:42;21.00;99.90
64855;DHT22;51321;50.428;8.378;2022-10-26T12:28:04;20.90;99.90
64855;DHT22;51321;50.428;8.378;2022-10-26T12:30:49;21.00;99.90
64855;DHT22;51321;50.428;8.378;2022-10-26T12:33:27;20.90;99.90
64855;DHT22;51321;50.428;8.378;2022-10-26T12:35:51;20.80;99.90
64855;DHT22;51321;50.428;8.378;2022-10-26T12:41:21;20.60;99.90
64855;DHT22;51321;50.428;8.378;2022-10-26T12:43:44;20.70;99.90
64855;DHT22;51321;50.428;8.378;2022-10-26T12:52:42;20.60;99.90
64855;DHT22;51321;50.428;8.378;2022-10-26T12:55:37;20.50;99.90
64855;DHT22;51321;50.428;8.378;2022-10-26T12:58:29;20.50;99.90
64855;DHT22;51321;50.428;8.378;2022-10-26T13:01:35;20.50;99.90
64855;DHT22;51321;50.428;8.378;2022-10-26T13:08:00;20.30;99.90
64855;DHT22;51321;50.428;8.378;2022-10-26T13:10:24;20.20;99.90
64855;DHT22;51321;50.428;8.378;2022-10-26T13:12:50;20.10;99.90
64855;DHT22;51321;50.428;8.378;2022-10-26T13:15:21;20.10;99.90
64855;DHT22;51321;50.428;8.378;2022-10-26T13:17:52;20.10;99.90
64855;DHT22;51321;50.428;8.378;2022-10-26T13:20:16;20.00;99.90
64855;DHT22;51321;50.428;8.378;2022-10-26T13:22:44;19.90;99.90
64855;DHT22;51321;50.428;8.378;2022-10-26T13:25:21;19.90;99.90
64855;DHT22;51321;50.428;8.378;2022-10-26T13:27:57;19.80;99.90
64855;DHT22;51321;50.428;8.378;2022-10-26T13:30:47;19.80;99.90
64855;DHT22;51321;50.428;8.378;2022-10-26T13:33:24;19.70;99.90
64855;DHT22;51321;50.428;8.378;2022-10-26T13:35:52;19.60;99.90
64855;DHT22;51321;50.428;8.378;2022-10-26T13:38:19;19.50;99.90
64855;DHT22;51321;50.428;8.378;2022-10-26T13:40:43;19.50;99.90
64855;DHT22;51321;50.428;8.378;2022-10-26T13:43:10;19.40;99.90
64855;DHT22;51321;50.428;8.378;2022-10-26T13:45:40;19.30;99.90
64855;DHT22;51321;50.428;8.378;2022-10-26T13:48:12;19.20;99.90
64855;DHT22;51321;50.428;8.378;2022-10-26T13:50:39;19.20;99.90
64855;DHT22;51321;50.428;8.378;2022-10-26T13:53:07;19.10;99.90
64855;DHT22;51321;50.428;8.378;2022-10-26T13:55:38;19.00;99.90
64855;DHT22;51321;50.428;8.378;2022-10-26T13:58:17;18.90;99.90
64855;DHT22;51321;50.428;8.378;2022-10-26T14:00:59;18.90;99.90
64855;DHT22;51321;50.428;8.378;2022-10-26T14:03:22;18.90;99.90
64855;DHT22;51321;50.428;8.378;2022-10-26T14:05:46;18.90;99.90
64855;DHT22;51321;50.428;8.378;2022-10-26T14:08:15;18.80;99.90
64855;DHT22;51321;50.428;8.378;2022-10-26T14:10:40;18.80;99.90
64855;DHT22;51321;50.428;8.378;2022-10-26T14:13:06;18.80;99.90
64855;DHT22;51321;50.428;8.378;2022-10-26T14:15:31;18.90;99.90
64855;DHT22;51321;50.428;8.378;2022-10-26T14:17:55;19.00;99.90
64855;DHT22;51321;50.428;8.378;2022-10-26T14:20:19;19.10;99.90
64855;DHT22;51321;50.428;8.378;2022-10-26T14:22:42;19.20;99.90
64855;DHT22;51321;50.428;8.378;2022-10-26T14:25:17;19.20;99.90
64855;DHT22;51321;50.428;8.378;2022-10-26T14:27:40;19.20;99.90
64855;DHT22;51321;50.428;8.378;2022-10-26T14:30:19;19.10;99.90
64855;DHT22;51321;50.428;8.378;2022-10-26T14:32:44;19.10;99.90
64855;DHT22;51321;50.428;8.378;2022-10-26T14:35:10;19.00;99.90
64855;DHT22;51321;50.428;8.378;2022-10-26T14:37:37;18.90;99.90
64855;DHT22;51321;50.428;8.378;2022-10-26T14:40:01;18.90;99.90
64855;DHT22;51321;50.428;8.378;2022-10-26T14:42:26;18.80;99.90
64855;DHT22;51321;50.428;8.378;2022-10-26T14:44:50;18.70;99.90
64855;DHT22;51321;50.428;8.378;2022-10-26T14:47:12;18.70;99.90
64855;DHT22;51321;50.428;8.378;2022-10-26T14:49:36;18.70;99.90
64855;DHT22;51321;50.428;8.378;2022-10-26T14:52:00;18.60;99.90
64855;DHT22;51321;50.428;8.378;2022-10-26T14:54:26;18.50;99.90
64855;DHT22;51321;50.428;8.378;2022-10-26T14:56:49;18.40;99.90
64855;DHT22;51321;50.428;8.378;2022-10-26T14:59:19;18.40;99.90
64855;DHT22;51321;50.428;8.378;2022-10-26T15:01:51;18.30;99.90
64855;DHT22;51321;50.428;8.378;2022-10-26T15:04:26;18.20;99.90
64855;DHT22;51321;50.428;8.378;2022-10-26T15:06:50;18.10;99.90
64855;DHT22;51321;50.428;8.378;2022-10-26T15:09:37;18.10;99.90
64855;DHT22;51321;50.428;8.378;2022-10-26T15:11:59;18.00;99.90
64855;DHT22;51321;50.428;8.378;2022-10-26T15:14:24;17.90;99.90
64855;DHT22;51321;50.428;8.378;2022-10-26T15:16:50;17.70;99.90
64855;DHT22;51321;50.428;8.378;2022-10-26T15:19:18;17.70;99.90
64855;DHT22;51321;50.428;8.378;2022-10-26T15:21:45;17.60;99.90
64855;DHT22;51321;50.428;8.378;2022-10-26T15:24:24;17.60;99.90
64855;DHT22;51321;50.428;8.378;2022-10-26T15:26:47;17.50;99.90
64855;DHT22;51321;50.428;8.378;2022-10-26T15:29:33;17.50;99.90
64855;DHT22;51321;50.428;8.378;2022-10-26T15:31:59;17.30;99.90
64855;DHT22;51321;50.428;8.378;2022-10-26T15:34:22;17.20;99.90
64855;DHT22;51321;50.428;8.378;2022-10-26T15:36:44;17.20;99.90
64855;DHT22;51321;50.428;8.378;2022-10-26T15:39:06;17.10;99.90
64855;DHT22;51321;50.428;8.378;2022-10-26T15:41:32;17.10;99.90
64855;DHT22;51321;50.428;8.378;2022-10-26T15:43:57;17.00;99.90
64855;DHT22;51321;50.428;8.378;2022-10-26T15:46:20;16.90;99.90
64855;DHT22;51321;50.428;8.378;2022-10-26T15:48:45;16.90;99.90
64855;DHT22;51321;50.428;8.378;2022-10-26T15:51:12;16.70;99.90
64855;DHT22;51321;50.428;8.378;2022-10-26T15:53:35;16.70;99.90